Time;durP1;ratioP1;P1;durP2;ratioP2;P2;SDS_P1;SDS_P2;PMS_P1;PMS_P2;Temp;Humidity;BMP_temperature;BMP_pressure;BME280_temperature;BME280_humidity;BME280_pressure;Samples;Min_cycle;Max_cycle;Signal;HPM_P1;HPM_P2
2021/03/09 00:00:54;;;;;;;39.03;27.15;;;;;;;4.49;70.48;101971.22;5252899;28;20025;-68
2021/03/09 00:03:26;;;;;;;40.03;26.40;;;;;;;4.42;71.00;101975.81;5246842;28;20033;-68
2021/03/09 00:05:57;;;;;;;38.47;26.65;;;;;;;4.39;71.20;101965.53;5248602;28;20405;-67
2021/03/09 00:08:28;;;;;;;45.30;28.08;;;;;;;4.41;70.97;101968.09;5229106;28;20409;-68
2021/03/09 00:10:59;;;;;;;41.47;26.42;;;;;;;4.37;72.11;101967.38;5245681;28;20494;-68
2021/03/09 00:13:31;;;;;;;43.05;27.70;;;;;;;4.34;72.11;101967.50;5249337;28;20398;-68
2021/03/09 00:16:02;;;;;;;41.78;26.60;;;;;;;4.37;73.02;101965.63;5251743;28;20037;-68
2021/03/09 00:18:33;;;;;;;43.78;28.83;;;;;;;4.30;72.41;101966.78;5258568;28;20028;-68
2021/03/09 00:21:05;;;;;;;43.15;28.50;;;;;;;4.28;73.95;101962.53;5255795;28;20211;-68
2021/03/09 00:23:36;;;;;;;42.08;27.52;;;;;;;4.23;74.59;101959.28;5254288;28;20035;-68
2021/03/09 00:26:07;;;;;;;45.65;27.92;;;;;;;4.24;75.01;101966.16;5257253;28;20028;-68
2021/03/09 00:28:39;;;;;;;49.42;29.25;;;;;;;4.21;75.16;101961.13;5262150;28;20060;-68
2021/03/09 00:31:10;;;;;;;42.58;27.90;;;;;;;4.21;75.05;101958.53;5259428;28;20329;-68
2021/03/09 00:33:41;;;;;;;43.50;27.77;;;;;;;4.17;75.55;101960.41;5258401;28;20045;-67
2021/03/09 00:36:12;;;;;;;44.28;28.38;;;;;;;4.10;76.17;101962.38;5263387;28;20029;-68
2021/03/09 00:38:44;;;;;;;47.35;29.98;;;;;;;4.08;76.72;101953.81;5260185;28;20033;-68
2021/03/09 00:41:15;;;;;;;42.28;29.23;;;;;;;4.11;76.15;101958.03;5256603;28;20111;-68
2021/03/09 00:43:49;;;;;;;49.75;29.77;;;;;;;4.12;76.18;101955.38;5260402;28;20029;-68
2021/03/09 00:46:20;;;;;;;42.20;28.35;;;;;;;4.07;76.72;101954.72;5259618;28;20520;-68
2021/03/09 00:48:52;;;;;;;48.38;30.00;;;;;;;4.09;77.51;101950.34;5260508;28;20029;-68
2021/03/09 00:51:23;;;;;;;48.20;30.48;;;;;;;4.03;77.54;101945.38;5259738;28;20036;-68
2021/03/09 00:53:54;;;;;;;44.95;30.55;;;;;;;4.03;77.39;101947.97;5257677;28;20081;-68
2021/03/09 00:56:26;;;;;;;47.85;30.15;;;;;;;4.00;77.33;101942.06;5256665;28;20540;-68
2021/03/09 00:58:57;;;;;;;48.58;30.33;;;;;;;4.01;77.92;101936.81;5258070;28;20648;-68
2021/03/09 01:01:28;;;;;;;46.20;30.40;;;;;;;4.02;77.83;101924.72;5263606;28;20497;-68
2021/03/09 01:04:00;;;;;;;47.08;30.30;;;;;;;3.98;78.45;101923.13;5256484;28;20103;-68
2021/03/09 01:06:31;;;;;;;48.90;32.80;;;;;;;3.92;78.69;101926.81;5258528;28;20421;-67
2021/03/09 01:09:02;;;;;;;52.83;30.63;;;;;;;3.99;78.19;101930.00;5258689;28;20098;-68
2021/03/09 01:11:34;;;;;;;50.17;31.25;;;;;;;3.95;78.28;101926.69;5261370;28;20029;-68
2021/03/09 01:14:05;;;;;;;44.53;29.00;;;;;;;3.96;78.22;101923.19;5258858;28;20116;-68
2021/03/09 01:16:36;;;;;;;48.35;29.83;;;;;;;3.88;78.92;101918.31;5262615;28;20102;-68
2021/03/09 01:19:07;;;;;;;50.53;31.88;;;;;;;3.94;78.43;101919.84;5258477;28;20036;-67
2021/03/09 01:21:39;;;;;;;48.38;30.80;;;;;;;3.85;78.81;101895.09;5260240;28;20028;-67
2021/03/09 01:24:10;;;;;;;49.05;30.50;;;;;;;3.96;79.01;101901.63;5259406;28;20031;-68
2021/03/09 01:26:42;;;;;;;46.70;30.17;;;;;;;3.90;78.92;101903.56;5258223;28;20204;-68
2021/03/09 01:29:13;;;;;;;51.60;33.10;;;;;;;3.86;79.15;101895.94;5260080;28;20509;-67
2021/03/09 01:31:44;;;;;;;50.63;33.00;;;;;;;3.85;79.59;101891.66;5262264;28;20052;-67
2021/03/09 01:34:15;;;;;;;50.55;32.45;;;;;;;3.84;78.73;101895.16;5263443;28;20393;-68
2021/03/09 01:36:47;;;;;;;51.88;32.38;;;;;;;3.73;79.99;101884.38;5258900;28;20123;-67
2021/03/09 01:39:18;;;;;;;48.42;32.15;;;;;;;3.81;79.85;101893.53;5260289;28;20031;-68
2021/03/09 01:41:49;;;;;;;49.33;31.00;;;;;;;3.73;79.49;101867.06;5257928;28;20029;-68
2021/03/09 01:44:21;;;;;;;52.58;34.70;;;;;;;3.78;80.16;101882.44;5262359;28;20055;-68
2021/03/09 01:46:55;;;;;;;50.92;32.03;;;;;;;3.77;80.55;101883.34;5255678;28;20040;-68
2021/03/09 01:49:29;;;;;;;51.58;31.33;;;;;;;3.78;80.45;101890.22;5260867;28;20033;-68
2021/03/09 01:52:06;;;;;;;50.22;31.80;;;;;;;3.79;80.38;101877.22;5263323;28;20033;-68
2021/03/09 01:54:39;;;;;;;48.90;32.55;;;;;;;3.72;80.92;101874.94;5255545;28;20422;-67
2021/03/09 01:57:11;;;;;;;56.15;32.78;;;;;;;3.68;80.86;101866.44;5262274;28;20054;-67
2021/03/09 01:59:44;;;;;;;48.95;31.13;;;;;;;3.71;80.60;101868.03;5258169;28;20122;-68
2021/03/09 02:02:16;;;;;;;48.97;31.67;;;;;;;3.68;81.08;101874.22;5260881;28;20358;-68
2021/03/09 02:04:47;;;;;;;50.63;31.63;;;;;;;3.65;81.11;101864.78;5259230;28;20040;-68
2021/03/09 02:07:18;;;;;;;49.55;30.90;;;;;;;3.66;81.16;101863.03;5259625;28;20040;-68
2021/03/09 02:09:50;;;;;;;50.15;32.05;;;;;;;3.63;81.27;101845.84;5260598;28;20103;-68
2021/03/09 02:12:45;;;;;;;48.97;30.30;;;;;;;3.72;79.86;101855.03;5249852;28;20029;-68
2021/03/09 02:15:27;;;;;;;46.03;29.85;;;;;;;3.67;80.82;101856.94;5259633;28;20444;-68
2021/03/09 02:18:23;;;;;;;49.63;31.15;;;;;;;3.66;81.34;101850.09;5261055;28;20024;-68
2021/03/09 02:21:20;;;;;;;51.65;30.80;;;;;;;3.71;81.06;101853.31;5254687;28;20474;-68
2021/03/09 02:24:08;;;;;;;47.88;29.48;;;;;;;3.70;81.43;101840.44;5259040;28;20021;-68
2021/03/09 02:27:14;;;;;;;50.85;31.38;;;;;;;3.64;81.47;101837.19;5261569;28;20043;-68
2021/03/09 02:30:14;;;;;;;50.05;31.05;;;;;;;3.66;80.76;101830.19;5259233;28;20053;-67
2021/03/09 02:33:15;;;;;;;50.03;32.08;;;;;;;3.62;81.44;101823.44;5258278;28;20111;-67
2021/03/09 02:35:55;;;;;;;49.28;30.85;;;;;;;3.59;81.03;101828.75;5257074;28;20024;-67
2021/03/09 02:38:32;;;;;;;48.78;31.70;;;;;;;3.55;81.80;101822.00;5263100;28;20040;-67
2021/03/09 02:41:05;;;;;;;49.08;31.70;;;;;;;3.59;81.51;101817.53;5259468;28;20385;-67
2021/03/09 02:43:38;;;;;;;54.47;33.40;;;;;;;3.57;82.02;101811.59;5257141;28;20029;-68
2021/03/09 02:46:10;;;;;;;50.45;31.60;;;;;;;3.57;82.08;101804.66;5256440;28;20036;-67
2021/03/09 02:48:44;;;;;;;50.13;31.80;;;;;;;3.54;82.09;101802.19;5259186;28;20174;-67
2021/03/09 02:51:15;;;;;;;;;;;;;;;3.70;81.00;101796.38;5262023;28;20058;-68
2021/03/09 02:53:51;;;;;;;55.03;32.53;;;;;;;3.56;82.04;101797.81;5249392;28;19950;-67
2021/03/09 02:56:24;;;;;;;52.63;32.60;;;;;;;3.52;82.60;101792.78;5253787;28;20036;-68
2021/03/09 02:58:57;;;;;;;51.05;32.42;;;;;;;3.54;82.40;101786.63;5253773;28;20363;-68
2021/03/09 03:01:29;;;;;;;55.05;33.95;;;;;;;3.49;82.37;101785.16;5249751;28;20527;-68
2021/03/09 03:04:02;;;;;;;52.63;32.23;;;;;;;3.50;82.54;101786.84;5252415;28;20545;-67
2021/03/09 03:06:36;;;;;;;64.47;35.23;;;;;;;3.45;83.36;101779.25;5254159;28;20523;-68
2021/03/09 03:09:08;;;;;;;57.63;34.20;;;;;;;3.42;83.46;101777.63;5259229;28;20029;-68
2021/03/09 03:11:42;;;;;;;52.85;31.63;;;;;;;3.46;83.71;101780.94;5240248;28;20043;-67
2021/03/09 03:14:14;;;;;;;55.80;34.63;;;;;;;3.46;83.92;101780.09;5252938;28;20284;-68
2021/03/09 03:16:46;;;;;;;52.92;33.30;;;;;;;3.44;83.19;101771.53;5256856;28;20104;-68
2021/03/09 03:19:22;;;;;;;57.47;35.10;;;;;;;3.44;83.70;101769.78;5259063;28;20033;-68
2021/03/09 03:21:54;;;;;;;54.72;33.90;;;;;;;3.41;84.14;101764.75;5256825;28;20402;-67
2021/03/09 03:24:27;;;;;;;58.13;34.95;;;;;;;3.42;83.57;101769.84;5259984;28;20325;-68
2021/03/09 03:26:58;;;;;;;56.80;35.35;;;;;;;3.45;83.83;101768.88;5259621;28;20447;-68
2021/03/09 03:29:30;;;;;;;63.95;35.95;;;;;;;3.43;83.70;101757.72;5236782;28;20065;-68
2021/03/09 03:32:02;;;;;;;60.63;35.13;;;;;;;3.38;84.01;101754.50;5257743;28;20115;-68
2021/03/09 03:34:34;;;;;;;57.90;35.50;;;;;;;3.37;84.11;101751.06;5256437;28;20603;-68
2021/03/09 03:37:06;;;;;;;55.78;35.25;;;;;;;3.40;83.98;101753.50;5258454;28;20059;-68
2021/03/09 03:39:37;;;;;;;55.42;33.85;;;;;;;3.41;83.64;101756.97;5257544;28;20459;-69
2021/03/09 03:42:09;;;;;;;51.80;33.22;;;;;;;3.40;84.55;101744.91;5257018;28;20028;-68
2021/03/09 03:44:41;;;;;;;60.55;33.10;;;;;;;3.39;84.47;101754.41;5254218;28;20075;-68
2021/03/09 03:47:12;;;;;;;52.63;32.45;;;;;;;3.36;84.05;101745.94;5259290;28;20103;-68
2021/03/09 03:49:43;;;;;;;50.17;30.67;;;;;;;3.33;84.38;101744.31;5258695;28;20028;-68
2021/03/09 03:52:54;;;;;;;54.40;32.35;;;;;;;3.40;84.06;101744.91;5257014;28;20897;-68
2021/03/09 03:55:52;;;;;;;52.10;32.72;;;;;;;3.40;84.11;101750.09;5254170;28;20044;-68
2021/03/09 03:58:29;;;;;;;54.40;31.63;;;;;;;3.36;84.99;101748.53;5259635;28;20066;-68
2021/03/09 04:01:02;;;;;;;55.08;33.33;;;;;;;3.33;85.07;101751.22;5254758;28;20132;-67
2021/03/09 04:03:36;;;;;;;54.83;32.88;;;;;;;3.29;85.04;101744.47;5257777;28;20470;-68
2021/03/09 04:06:08;;;;;;;;;;;;;;;3.47;84.15;101745.50;5259099;28;20456;-68
2021/03/09 04:08:39;;;;;;;52.17;31.65;;;;;;;3.34;84.76;101750.34;5260041;28;20004;-68
2021/03/09 04:11:10;;;;;;;57.83;33.17;;;;;;;3.30;84.92;101743.59;5259304;28;20575;-67
2021/03/09 04:13:43;;;;;;;56.35;34.67;;;;;;;3.30;85.81;101741.00;5264482;28;20474;-68
2021/03/09 04:16:15;;;;;;;55.73;33.03;;;;;;;3.29;84.88;101747.06;5263023;28;20025;-68
2021/03/09 04:18:49;;;;;;;53.60;33.85;;;;;;;3.29;85.54;101739.31;5262025;28;20037;-68
2021/03/09 04:21:22;;;;;;;60.10;34.10;;;;;;;3.29;85.31;101734.13;5260211;28;20032;-68
2021/03/09 04:23:54;;;;;;;58.05;35.67;;;;;;;3.31;85.34;101735.75;5260039;28;20040;-68
2021/03/09 04:26:26;;;;;;;59.97;35.85;;;;;;;3.27;85.13;101723.00;5263291;28;20107;-68
2021/03/09 04:28:58;;;;;;;53.70;33.70;;;;;;;3.29;85.27;101724.59;5262289;28;20040;-67
2021/03/09 04:31:30;;;;;;;58.22;36.40;;;;;;;3.28;85.29;101722.09;5261168;28;20497;-68
2021/03/09 04:34:02;;;;;;;61.67;37.00;;;;;;;3.27;85.58;101725.59;5264278;28;20290;-68
2021/03/09 04:36:34;;;;;;;61.78;35.75;;;;;;;3.26;85.73;101722.16;5259620;28;20124;-67
2021/03/09 04:39:06;;;;;;;57.97;36.20;;;;;;;3.28;85.69;101716.91;5261030;28;20078;-67
2021/03/09 04:41:37;;;;;;;56.88;36.03;;;;;;;3.32;85.40;101714.13;5266283;28;20561;-68
2021/03/09 04:44:09;;;;;;;62.90;37.28;;;;;;;3.30;86.23;101709.94;5259295;28;20028;-68
2021/03/09 04:46:42;;;;;;;56.08;35.88;;;;;;;3.29;86.40;101711.66;5263500;28;20028;-68
2021/03/09 04:49:17;;;;;;;;;;;;;;;3.41;85.49;101712.94;5265006;28;20024;-68
2021/03/09 04:51:48;;;;;;;62.92;36.22;;;;;;;3.30;86.33;101703.00;5260703;28;20003;-68
2021/03/09 04:54:20;;;;;;;61.35;36.53;;;;;;;3.25;86.48;101704.91;5260053;28;20034;-68
2021/03/09 04:56:51;;;;;;;64.55;37.88;;;;;;;3.27;86.66;101712.66;5239786;28;20035;-67
2021/03/09 04:59:23;;;;;;;63.38;37.85;;;;;;;3.28;86.81;101703.97;5260921;28;20035;-67
2021/03/09 05:01:54;;;;;;;66.95;38.40;;;;;;;3.29;86.53;101701.31;5253926;28;20135;-67
2021/03/09 05:04:25;;;;;;;64.63;37.85;;;;;;;3.25;86.49;101699.75;5258411;28;20028;-67
2021/03/09 05:06:57;;;;;;;64.30;38.60;;;;;;;3.29;86.86;101696.13;5252620;28;20734;-68
2021/03/09 05:09:28;;;;;;;67.38;39.90;;;;;;;3.27;87.43;101694.53;5257906;28;20036;-68
2021/03/09 05:11:59;;;;;;;70.13;40.42;;;;;;;3.28;86.58;101693.59;5258364;28;20024;-67
2021/03/09 05:14:32;;;;;;;71.93;40.78;;;;;;;3.27;87.12;101690.19;5258867;28;20544;-68
2021/03/09 05:17:03;;;;;;;65.87;39.40;;;;;;;3.29;87.18;101697.88;5258019;28;20033;-67
2021/03/09 05:19:34;;;;;;;66.88;39.42;;;;;;;3.27;87.66;101697.94;5259694;28;20037;-67
2021/03/09 05:22:06;;;;;;;71.47;41.00;;;;;;;3.29;87.81;101695.28;5259124;28;20051;-68
2021/03/09 05:24:37;;;;;;;67.95;38.85;;;;;;;3.26;87.83;101698.00;5259469;28;20509;-67
2021/03/09 05:27:09;;;;;;;69.75;41.33;;;;;;;3.25;87.43;101694.56;5258977;28;20027;-68
2021/03/09 05:29:40;;;;;;;66.72;38.80;;;;;;;3.27;88.07;101699.69;5243506;28;20084;-68
2021/03/09 05:32:11;;;;;;;71.32;41.30;;;;;;;3.27;87.42;101692.75;5261477;28;20032;-68
2021/03/09 05:34:43;;;;;;;71.18;40.72;;;;;;;3.30;87.51;101689.22;5260366;28;20115;-67
2021/03/09 05:37:14;;;;;;;65.90;41.03;;;;;;;3.25;87.85;101680.78;5262083;28;20024;-67
2021/03/09 05:39:45;;;;;;;71.03;41.65;;;;;;;3.27;88.19;101679.81;5260295;28;20028;-68
2021/03/09 05:42:17;;;;;;;67.65;39.35;;;;;;;3.29;87.53;101679.75;5257262;28;20040;-67
2021/03/09 05:44:48;;;;;;;67.25;41.25;;;;;;;3.28;88.30;101681.50;5257142;28;20047;-68
2021/03/09 05:47:22;;;;;;;69.57;40.65;;;;;;;3.31;87.82;101685.72;5258256;28;20071;-68
2021/03/09 05:49:53;;;;;;;74.50;41.95;;;;;;;3.34;88.29;101690.78;5259834;28;20032;-68
2021/03/09 05:52:25;;;;;;;71.10;40.72;;;;;;;3.33;88.31;101689.94;5254739;28;20402;-68
2021/03/09 05:54:56;;;;;;;70.50;41.38;;;;;;;3.31;88.17;101673.59;5258843;28;20020;-67
2021/03/09 05:57:29;;;;;;;66.63;41.50;;;;;;;3.33;88.18;101686.47;5241911;28;20733;-68
2021/03/09 06:00:03;;;;;;;75.45;42.53;;;;;;;3.30;88.49;101684.88;5257617;28;20033;-68
2021/03/09 06:02:34;;;;;;;71.28;42.40;;;;;;;3.31;88.80;101681.38;5259216;28;20041;-67
2021/03/09 06:05:11;;;;;;;70.88;41.97;;;;;;;3.31;88.51;101683.13;5256259;28;20440;-67
2021/03/09 06:07:42;;;;;;;70.70;41.42;;;;;;;3.32;89.38;101679.63;5257679;28;20323;-67
2021/03/09 06:10:21;;;;;;;70.63;40.88;;;;;;;3.29;88.76;101679.75;5260589;28;20033;-67
2021/03/09 06:12:52;;;;;;;71.20;42.97;;;;;;;3.31;89.25;101683.13;5259022;28;20429;-68
2021/03/09 06:15:24;;;;;;;69.28;41.47;;;;;;;3.34;89.10;101680.41;5255517;28;20025;-67
2021/03/09 06:17:57;;;;;;;75.82;43.70;;;;;;;3.34;89.79;101683.00;5259912;28;20634;-68
2021/03/09 06:20:30;;;;;;;78.13;44.58;;;;;;;3.35;89.36;101677.75;5261908;28;20299;-68
2021/03/09 06:23:02;;;;;;;71.90;42.90;;;;;;;3.36;89.83;101670.81;5260198;28;20530;-68
2021/03/09 06:25:39;;;;;;;73.72;44.30;;;;;;;3.36;89.54;101661.28;5255658;28;20078;-68
2021/03/09 06:28:10;;;;;;;73.38;46.05;;;;;;;3.37;89.62;101669.91;5249166;28;20039;-67
2021/03/09 06:30:42;;;;;;;82.50;46.97;;;;;;;3.41;89.43;101677.50;5256982;28;20048;-68
2021/03/09 06:33:26;;;;;;;75.43;45.28;;;;;;;3.42;90.26;101670.56;5257580;28;20056;-67
2021/03/09 06:36:00;;;;;;;76.15;43.97;;;;;;;3.42;89.54;101660.22;5256348;28;20056;-68
2021/03/09 06:38:32;;;;;;;82.55;48.55;;;;;;;3.40;89.95;101667.19;5252531;28;20093;-68
2021/03/09 06:41:15;;;;;;;81.00;47.20;;;;;;;3.49;89.08;101661.66;5258088;28;20076;-67
2021/03/09 06:43:59;;;;;;;79.13;46.57;;;;;;;3.48;89.73;101666.88;5257123;28;20061;-68
2021/03/09 06:46:47;;;;;;;77.93;46.53;;;;;;;3.48;89.52;101665.13;5259363;28;20094;-68
2021/03/09 06:49:18;;;;;;;82.95;46.58;;;;;;;3.47;89.89;101668.63;5252056;28;20033;-68
2021/03/09 06:51:49;;;;;;;80.57;47.35;;;;;;;3.48;89.72;101670.31;5251625;28;20082;-67
2021/03/09 06:54:21;;;;;;;84.53;48.30;;;;;;;3.46;90.00;101666.94;5253454;28;20501;-68
2021/03/09 06:56:52;;;;;;;81.38;47.53;;;;;;;3.53;89.90;101676.16;5251985;28;20033;-68
2021/03/09 06:59:28;;;;;;;80.22;49.00;;;;;;;3.56;90.14;101672.56;5261945;28;20397;-68
2021/03/09 07:02:11;;;;;;;90.93;51.03;;;;;;;3.55;90.46;101679.50;5249269;28;20029;-67
2021/03/09 07:04:51;;;;;;;86.13;48.07;;;;;;;3.56;90.21;101682.94;5248443;28;20059;-68
2021/03/09 07:07:32;;;;;;;87.90;50.90;;;;;;;3.59;90.47;101685.41;5256314;28;20157;-68
2021/03/09 07:10:15;;;;;;;89.53;50.67;;;;;;;3.60;90.46;101687.94;5256194;28;20085;-67
2021/03/09 07:12:48;;;;;;;92.05;52.50;;;;;;;3.58;90.94;101687.16;5255487;28;20021;-68
2021/03/09 07:15:21;;;;;;;89.72;50.30;;;;;;;3.60;91.05;101687.09;5257677;28;20028;-67
2021/03/09 07:17:52;;;;;;;98.47;51.90;;;;;;;3.58;90.91;101678.53;5260892;28;20025;-68
2021/03/09 07:20:24;;;;;;;90.72;51.72;;;;;;;3.63;90.97;101684.34;5235739;28;20051;-68
2021/03/09 07:22:58;;;;;;;86.30;49.03;;;;;;;3.59;91.26;101680.22;5252040;28;20025;-67
2021/03/09 07:25:30;;;;;;;88.82;50.08;;;;;;;3.67;91.21;101691.09;5254269;28;20108;-68
2021/03/09 07:28:13;;;;;;;86.25;50.42;;;;;;;3.68;91.27;101692.81;5255819;28;20028;-68
2021/03/09 07:30:49;;;;;;;89.78;50.47;;;;;;;3.69;91.35;101691.88;5255885;28;20416;-68
2021/03/09 07:33:21;;;;;;;90.68;50.25;;;;;;;3.71;91.09;101702.19;5255688;28;20447;-68
2021/03/09 07:35:53;;;;;;;85.75;50.50;;;;;;;3.72;91.98;101704.72;5253491;28;20033;-68
2021/03/09 07:38:24;;;;;;;91.50;52.08;;;;;;;3.74;91.39;101702.88;5258040;28;20028;-67
2021/03/09 07:40:56;;;;;;;93.97;51.88;;;;;;;3.72;91.37;101702.13;5261111;28;20485;-68
2021/03/09 07:43:28;;;;;;;91.55;51.33;;;;;;;3.76;91.38;101706.28;5261552;28;20483;-68
2021/03/09 07:46:00;;;;;;;85.85;48.30;;;;;;;3.78;91.56;101706.19;5257230;28;20063;-68
2021/03/09 07:48:31;;;;;;;89.35;51.03;;;;;;;3.79;91.90;101708.75;5255399;28;20063;-68
2021/03/09 07:51:04;;;;;;;82.90;46.88;;;;;;;3.80;91.60;101710.41;5260704;28;20482;-67
2021/03/09 07:53:36;;;;;;;89.95;50.13;;;;;;;3.85;91.40;101710.22;5260602;28;20040;-68
2021/03/09 07:56:07;;;;;;;83.38;48.20;;;;;;;3.87;90.96;101714.44;5236224;28;20017;-68
2021/03/09 07:58:39;;;;;;;81.90;46.70;;;;;;;3.91;91.57;101720.34;5259234;28;20024;-68
2021/03/09 08:01:11;;;;;;;83.00;45.95;;;;;;;3.92;91.13;101710.81;5257589;28;20819;-68
2021/03/09 08:03:46;;;;;;;85.93;47.97;;;;;;;3.95;91.95;101716.69;5258722;28;20036;-68
2021/03/09 08:06:17;;;;;;;84.47;46.15;;;;;;;3.98;91.43;101710.50;5258280;28;20402;-68
2021/03/09 08:08:54;;;;;;;82.90;47.45;;;;;;;4.02;91.59;101710.34;5258276;28;20028;-67
2021/03/09 08:11:26;;;;;;;77.18;45.75;;;;;;;4.05;91.18;101720.59;5254820;28;20036;-68
2021/03/09 08:14:03;;;;;;;79.28;45.28;;;;;;;4.13;92.14;101718.50;5257110;28;20067;-68
2021/03/09 08:16:37;;;;;;;79.30;46.80;;;;;;;4.15;92.19;101711.47;5258396;28;20056;-69
2021/03/09 08:19:13;;;;;;;77.00;43.72;;;;;;;4.23;91.97;101720.66;5260080;28;20067;-67
2021/03/09 08:21:59;;;;;;;75.90;44.97;;;;;;;4.28;91.22;101714.38;5263835;28;20486;-68
2021/03/09 08:24:53;;;;;;;72.57;44.10;;;;;;;4.35;92.27;101720.13;5253256;28;20064;-68
2021/03/09 08:27:27;;;;;;;75.68;42.45;;;;;;;4.38;91.82;101714.78;5250106;28;21231;-68
2021/03/09 08:30:04;;;;;;;71.70;42.20;;;;;;;4.47;91.50;101711.81;5252377;28;20572;-68
2021/03/09 08:32:37;;;;;;;82.13;44.72;;;;;;;4.53;92.42;101715.84;5251577;28;20040;-68
2021/03/09 08:35:11;;;;;;;72.57;42.28;;;;;;;4.61;91.67;101718.94;5254876;28;20405;-67
2021/03/09 08:37:50;;;;;;;73.53;43.60;;;;;;;4.68;92.01;101722.09;5257106;28;20044;-67
2021/03/09 08:40:22;;;;;;;68.90;42.85;;;;;;;4.73;91.52;101728.75;5262712;28;20082;-67
2021/03/09 08:43:00;;;;;;;68.35;41.92;;;;;;;4.79;91.15;101714.66;5257013;28;20035;-68
2021/03/09 08:45:36;;;;;;;71.43;41.90;;;;;;;4.81;92.07;101712.81;5256470;28;20119;-68
2021/03/09 08:48:09;;;;;;;66.63;40.20;;;;;;;4.86;91.57;101721.25;5253936;28;20047;-68
2021/03/09 08:50:44;;;;;;;72.15;40.25;;;;;;;4.90;90.94;101722.78;5258479;28;20402;-69
2021/03/09 08:53:32;;;;;;;68.88;42.60;;;;;;;4.99;91.27;101721.50;5243778;28;20040;-68
2021/03/09 08:56:06;;;;;;;69.85;42.53;;;;;;;4.98;91.57;101722.44;5255527;28;20040;-68
2021/03/09 08:58:40;;;;;;;68.47;42.22;;;;;;;5.02;90.90;101711.81;5252801;28;20029;-68
2021/03/09 09:01:22;;;;;;;73.95;43.60;;;;;;;5.13;92.44;101708.72;5243734;28;20039;-68
2021/03/09 09:03:53;;;;;;;69.80;41.97;;;;;;;5.10;91.35;101711.44;5246707;28;20048;-69
2021/03/09 09:06:27;;;;;;;73.47;42.28;;;;;;;5.17;91.47;101699.03;5254127;28;20039;-69
2021/03/09 09:08:58;;;;;;;70.45;40.92;;;;;;;5.20;91.16;101709.28;5258000;28;20029;-68
2021/03/09 09:11:29;;;;;;;66.93;42.35;;;;;;;5.27;90.84;101705.47;5253410;28;20479;-69
2021/03/09 09:14:17;;;;;;;74.28;41.30;;;;;;;5.39;91.25;101704.84;5256839;28;20531;-68
2021/03/09 09:16:49;;;;;;;68.28;39.65;;;;;;;5.45;91.66;101699.34;5239565;28;20032;-69
2021/03/09 09:19:20;;;;;;;62.47;39.78;;;;;;;5.55;90.74;101694.53;5258284;28;20459;-68
2021/03/09 09:21:51;;;;;;;67.15;39.72;;;;;;;5.58;90.25;101702.19;5253021;28;20033;-68
2021/03/09 09:24:24;;;;;;;63.65;39.67;;;;;;;5.63;89.96;101694.16;5251117;28;20086;-69
2021/03/09 09:27:00;;;;;;;65.80;38.05;;;;;;;5.66;90.60;101697.44;5255621;28;20111;-69
2021/03/09 09:29:31;;;;;;;62.67;39.70;;;;;;;5.69;90.12;101697.28;5256895;28;20127;-68
2021/03/09 09:32:02;;;;;;;61.10;38.42;;;;;;;5.71;90.11;101695.44;5257056;28;20041;-69
2021/03/09 09:34:35;;;;;;;60.70;36.42;;;;;;;5.75;89.45;101694.34;5253529;28;20036;-68
2021/03/09 09:37:15;;;;;;;64.35;39.08;;;;;;;5.82;90.18;101690.53;5232080;28;20048;-69
2021/03/09 09:39:46;;;;;;;63.25;38.53;;;;;;;5.90;89.82;101700.53;5255391;28;20029;-68
2021/03/09 09:42:19;;;;;;;57.65;37.58;;;;;;;5.94;89.61;101704.69;5256582;28;20502;-67
2021/03/09 09:44:50;;;;;;;62.20;37.15;;;;;;;5.99;89.73;101697.50;5252956;28;20037;-67
2021/03/09 09:47:23;;;;;;;61.78;37.78;;;;;;;6.05;90.14;101704.97;5252098;28;20044;-68
2021/03/09 09:49:55;;;;;;;65.22;39.53;;;;;;;6.18;90.02;101696.53;5251718;28;20033;-68
2021/03/09 09:52:27;;;;;;;59.08;36.70;;;;;;;6.19;90.00;101699.06;5257542;28;20027;-67
2021/03/09 09:54:58;;;;;;;55.20;35.75;;;;;;;6.20;88.97;101702.50;5234040;28;20510;-68
2021/03/09 09:57:29;;;;;;;58.05;36.97;;;;;;;6.21;88.80;101696.34;5253966;28;20064;-67
2021/03/09 10:00:13;;;;;;;55.50;35.58;;;;;;;6.25;88.51;101703.09;5257105;28;20032;-67
2021/03/09 10:02:44;;;;;;;55.67;35.30;;;;;;;6.13;88.01;101699.38;5258536;28;20037;-67
2021/03/09 10:05:26;;;;;;;55.17;34.65;;;;;;;6.19;88.41;101700.81;5258926;28;20048;-67
2021/03/09 10:07:57;;;;;;;53.80;33.78;;;;;;;6.25;88.33;101697.88;5255556;28;20040;-67
2021/03/09 10:10:29;;;;;;;51.67;33.60;;;;;;;6.26;88.85;101700.41;5252337;28;20409;-68
2021/03/09 10:13:01;;;;;;;51.05;33.63;;;;;;;6.25;88.49;101696.16;5251549;28;20044;-68
2021/03/09 10:15:46;;;;;;;51.40;33.08;;;;;;;6.39;88.93;101694.56;5255604;28;20052;-67
2021/03/09 10:18:26;;;;;;;52.20;32.58;;;;;;;6.40;89.04;101704.03;5238489;28;20105;-68
2021/03/09 10:21:18;;;;;;;45.80;28.80;;;;;;;6.48;87.63;101700.13;5252972;28;20041;-68
2021/03/09 10:24:00;;;;;;;41.03;26.50;;;;;;;6.36;87.74;101694.72;5257598;28;20405;-68
2021/03/09 10:26:37;;;;;;;35.47;21.73;;;;;;;6.31;87.11;101702.75;5258970;28;20067;-68
2021/03/09 10:29:17;;;;;;;29.98;20.38;;;;;;;6.27;87.78;101703.84;5249930;28;20040;-68
2021/03/09 10:31:55;;;;;;;30.00;20.63;;;;;;;6.26;87.34;101699.59;5236356;28;20036;-68
2021/03/09 10:34:44;;;;;;;27.92;16.13;;;;;;;6.22;86.82;101705.88;5255586;28;20348;-67
2021/03/09 10:37:17;;;;;;;19.48;11.68;;;;;;;6.15;86.38;101709.72;5235813;28;20051;-69
2021/03/09 10:39:57;;;;;;;15.65;9.32;;;;;;;6.19;86.68;101699.06;5258754;28;20057;-68
2021/03/09 10:42:46;;;;;;;16.83;9.57;;;;;;;6.18;85.75;101699.16;5249394;28;20033;-68
2021/03/09 10:45:28;;;;;;;15.32;10.68;;;;;;;6.25;87.97;101695.28;5257238;28;20032;-68
2021/03/09 10:48:02;;;;;;;11.65;7.78;;;;;;;6.23;85.26;101689.31;5254804;28;20123;-68
2021/03/09 10:50:42;;;;;;;9.18;5.93;;;;;;;6.27;85.53;101688.25;5257855;28;20035;-68
2021/03/09 10:53:13;;;;;;;8.32;5.55;;;;;;;6.23;85.74;101684.13;5257107;28;20086;-68
2021/03/09 10:55:45;;;;;;;6.95;4.70;;;;;;;6.28;85.58;101682.09;5255617;28;20032;-68
2021/03/09 10:58:16;;;;;;;6.68;4.18;;;;;;;6.38;84.27;101682.47;5260215;28;20489;-68
2021/03/09 11:00:47;;;;;;;6.95;4.05;;;;;;;6.53;86.37;101676.44;5257845;28;20017;-68
2021/03/09 11:03:18;;;;;;;5.10;3.30;;;;;;;6.71;83.90;101674.59;5257541;28;20051;-69
2021/03/09 11:05:50;;;;;;;6.90;3.60;;;;;;;7.01;86.93;101669.44;5258098;28;20402;-68
2021/03/09 11:08:24;;;;;;;9.13;2.72;;;;;;;7.20;85.32;101670.06;5257454;28;20490;-69
2021/03/09 11:10:56;;;;;;;3.22;2.00;;;;;;;7.32;81.09;101668.50;5253157;28;20049;-67
2021/03/09 11:13:27;;;;;;;4.43;2.28;;;;;;;7.65;83.52;101665.69;5251989;28;20059;-68
2021/03/09 11:15:58;;;;;;;3.35;1.98;;;;;;;7.65;80.21;101675.28;5255581;28;20067;-70
2021/03/09 11:18:29;;;;;;;2.47;1.90;;;;;;;7.51;80.01;101676.09;5255069;28;20055;-70
2021/03/09 11:21:02;;;;;;;3.55;1.70;;;;;;;7.37;79.42;101670.84;5254719;28;20501;-70
2021/03/09 11:23:33;;;;;;;2.67;1.50;;;;;;;7.19;79.75;101673.56;5255108;28;20039;-70
2021/03/09 11:26:06;;;;;;;2.80;1.70;;;;;;;7.08;80.76;101678.56;5259253;28;20498;-71
2021/03/09 11:28:37;;;;;;;3.38;1.67;;;;;;;6.96;80.64;101677.47;5253922;28;20033;-70
2021/03/09 11:31:09;;;;;;;6.60;1.63;;;;;;;6.96;79.95;101690.50;5258335;28;20045;-70
2021/03/09 11:33:40;;;;;;;3.60;1.10;;;;;;;6.88;80.48;101694.47;5238440;28;20973;-71
2021/03/09 11:36:12;;;;;;;2.17;1.25;;;;;;;6.78;80.25;101694.13;5256341;28;20461;-70
2021/03/09 11:38:45;;;;;;;2.70;1.38;;;;;;;6.74;79.53;101695.22;5252785;28;20065;-70
2021/03/09 11:41:19;;;;;;;3.20;1.23;;;;;;;6.70;79.73;101696.31;5251031;28;20082;-70
2021/03/09 11:43:50;;;;;;;2.45;1.10;;;;;;;6.76;79.32;101693.41;5244577;28;20123;-71
2021/03/09 11:46:21;;;;;;;3.55;1.48;;;;;;;6.81;81.15;101692.19;5247602;28;20512;-70
2021/03/09 11:48:52;;;;;;;4.10;1.27;;;;;;;6.83;80.54;101695.56;5255189;28;20719;-70
2021/03/09 11:51:24;;;;;;;2.05;0.93;;;;;;;6.82;79.05;101690.47;5256865;28;20429;-70